sensor_id;sensor_type;location;lat;lon;timestamp;pressure;altitude;pressure_sealevel;temperature;humidity
42289;BME280;30230;47.520;19.016;2022-09-01T00:01:12;99097.66;;;17.57;75.90
42289;BME280;30230;47.520;19.016;2022-09-01T00:03:19;99098.38;;;17.48;78.05
42289;BME280;30230;47.520;19.016;2022-09-01T00:05:22;99103.38;;;17.56;77.86
42289;BME280;30230;47.520;19.016;2022-09-01T00:07:27;99103.63;;;17.32;79.47
42289;BME280;30230;47.520;19.016;2022-09-01T00:09:31;99104.63;;;17.26;79.62
42289;BME280;30230;47.520;19.016;2022-09-01T00:11:32;99114.63;;;17.21;81.71
42289;BME280;30230;47.520;19.016;2022-09-01T00:13:33;99113.88;;;17.25;83.49
42289;BME280;30230;47.520;19.016;2022-09-01T00:15:34;99116.53;;;17.20;83.77
42289;BME280;30230;47.520;19.016;2022-09-01T00:17:35;99118.72;;;17.18;85.93
42289;BME280;30230;47.520;19.016;2022-09-01T00:19:36;99119.53;;;17.18;85.46
42289;BME280;30230;47.520;19.016;2022-09-01T00:21:39;99119.53;;;17.18;87.42
42289;BME280;30230;47.520;19.016;2022-09-01T00:23:40;99109.53;;;17.07;86.21
42289;BME280;30230;47.520;19.016;2022-09-01T00:25:40;99114.91;;;17.02;87.31
42289;BME280;30230;47.520;19.016;2022-09-01T00:27:41;99126.31;;;17.16;88.54
42289;BME280;30230;47.520;19.016;2022-09-01T00:29:42;99125.31;;;17.22;88.61
42289;BME280;30230;47.520;19.016;2022-09-01T00:31:43;99133.75;;;17.21;89.18
42289;BME280;30230;47.520;19.016;2022-09-01T00:33:43;99133.00;;;17.25;89.70
42289;BME280;30230;47.520;19.016;2022-09-01T00:35:44;99130.53;;;17.24;90.59
42289;BME280;30230;47.520;19.016;2022-09-01T00:37:44;99132.91;;;17.20;88.94
42289;BME280;30230;47.520;19.016;2022-09-01T00:39:45;99132.25;;;17.30;88.82
42289;BME280;30230;47.520;19.016;2022-09-01T00:41:45;99127.78;;;17.24;88.84
42289;BME280;30230;47.520;19.016;2022-09-01T00:45:49;99137.06;;;17.23;90.25
42289;BME280;30230;47.520;19.016;2022-09-01T00:47:51;99127.78;;;17.24;89.93
42289;BME280;30230;47.520;19.016;2022-09-01T00:49:52;99136.56;;;17.26;90.39
42289;BME280;30230;47.520;19.016;2022-09-01T00:52:00;99130.53;;;17.24;89.50
42289;BME280;30230;47.520;19.016;2022-09-01T00:54:02;99128.47;;;17.14;91.25
42289;BME280;30230;47.520;19.016;2022-09-01T00:56:04;99124.84;;;17.08;89.95
42289;BME280;30230;47.520;19.016;2022-09-01T00:58:07;99124.75;;;17.03;91.01
42289;BME280;30230;47.520;19.016;2022-09-01T01:00:13;99133.75;;;17.04;92.19
42289;BME280;30230;47.520;19.016;2022-09-01T01:02:14;99133.13;;;16.97;89.69
42289;BME280;30230;47.520;19.016;2022-09-01T01:04:15;99139.56;;;16.90;87.22
42289;BME280;30230;47.520;19.016;2022-09-01T01:06:17;99138.53;;;16.80;86.34
42289;BME280;30230;47.520;19.016;2022-09-01T01:08:24;99147.91;;;16.84;87.91
42289;BME280;30230;47.520;19.016;2022-09-01T01:10:36;99142.63;;;16.77;87.36
42289;BME280;30230;47.520;19.016;2022-09-01T01:12:41;99140.44;;;16.79;87.35
42289;BME280;30230;47.520;19.016;2022-09-01T01:14:44;99147.72;;;16.74;89.92
42289;BME280;30230;47.520;19.016;2022-09-01T01:16:49;99141.00;;;16.64;86.23
42289;BME280;30230;47.520;19.016;2022-09-01T01:18:51;99144.94;;;16.57;84.24
42289;BME280;30230;47.520;19.016;2022-09-01T01:21:37;99144.94;;;16.57;86.53
42289;BME280;30230;47.520;19.016;2022-09-01T01:24:01;99139.50;;;16.57;89.31
42289;BME280;30230;47.520;19.016;2022-09-01T01:26:07;99136.44;;;16.53;88.95
42289;BME280;30230;47.520;19.016;2022-09-01T01:28:24;99137.03;;;16.55;89.87
42289;BME280;30230;47.520;19.016;2022-09-01T01:30:26;99138.50;;;16.46;89.11
42289;BME280;30230;47.520;19.016;2022-09-01T01:32:31;99137.31;;;16.42;88.99
42289;BME280;30230;47.520;19.016;2022-09-01T01:34:32;99143.28;;;16.39;88.91
42289;BME280;30230;47.520;19.016;2022-09-01T01:36:36;99145.41;;;16.37;89.42
42289;BME280;30230;47.520;19.016;2022-09-01T01:38:43;99144.59;;;16.36;91.14
42289;BME280;30230;47.520;19.016;2022-09-01T01:40:44;99150.38;;;16.40;91.86
42289;BME280;30230;47.520;19.016;2022-09-01T01:42:46;99142.78;;;16.42;93.81
42289;BME280;30230;47.520;19.016;2022-09-01T01:44:47;99148.91;;;16.49;93.23
42289;BME280;30230;47.520;19.016;2022-09-01T01:46:50;99149.22;;;16.53;90.77
42289;BME280;30230;47.520;19.016;2022-09-01T01:48:52;99141.78;;;16.48;90.07
42289;BME280;30230;47.520;19.016;2022-09-01T01:50:53;99137.56;;;16.40;90.04
42289;BME280;30230;47.520;19.016;2022-09-01T01:52:54;99119.59;;;16.28;90.17
42289;BME280;30230;47.520;19.016;2022-09-01T01:54:58;99139.13;;;16.36;90.16
42289;BME280;30230;47.520;19.016;2022-09-01T01:56:59;99126.75;;;16.29;91.34
42289;BME280;30230;47.520;19.016;2022-09-01T01:59:00;99131.94;;;16.30;92.91
42289;BME280;30230;47.520;19.016;2022-09-01T02:01:01;99136.56;;;16.30;91.81
42289;BME280;30230;47.520;19.016;2022-09-01T02:03:02;99130.66;;;16.21;87.64
42289;BME280;30230;47.520;19.016;2022-09-01T02:05:04;99133.50;;;16.26;88.02
42289;BME280;30230;47.520;19.016;2022-09-01T02:07:12;99128.28;;;16.25;85.53
42289;BME280;30230;47.520;19.016;2022-09-01T02:09:15;99124.38;;;16.21;88.19
42289;BME280;30230;47.520;19.016;2022-09-01T02:11:15;99125.56;;;16.25;87.05
42289;BME280;30230;47.520;19.016;2022-09-01T02:13:18;99113.66;;;16.14;86.81
42289;BME280;30230;47.520;19.016;2022-09-01T02:15:20;99111.66;;;16.09;86.59
42289;BME280;30230;47.520;19.016;2022-09-01T02:17:21;99109.59;;;16.17;88.18
42289;BME280;30230;47.520;19.016;2022-09-01T02:19:22;99100.75;;;16.09;88.22
42289;BME280;30230;47.520;19.016;2022-09-01T02:21:24;99103.22;;;16.11;87.94
42289;BME280;30230;47.520;19.016;2022-09-01T02:23:24;99106.78;;;16.11;89.74
42289;BME280;30230;47.520;19.016;2022-09-01T02:25:25;99113.44;;;16.04;87.85
42289;BME280;30230;47.520;19.016;2022-09-01T02:27:26;99111.53;;;16.04;88.89
42289;BME280;30230;47.520;19.016;2022-09-01T02:29:28;99119.28;;;15.96;87.76
42289;BME280;30230;47.520;19.016;2022-09-01T02:31:30;99100.44;;;15.94;87.48
42289;BME280;30230;47.520;19.016;2022-09-01T02:33:35;99104.56;;;15.97;87.89
42289;BME280;30230;47.520;19.016;2022-09-01T02:35:36;99104.56;;;15.97;90.49
42289;BME280;30230;47.520;19.016;2022-09-01T02:37:37;99118.19;;;15.97;88.41
42289;BME280;30230;47.520;19.016;2022-09-01T02:39:38;99114.31;;;15.93;88.42
42289;BME280;30230;47.520;19.016;2022-09-01T02:41:38;99109.25;;;15.84;86.33
42289;BME280;30230;47.520;19.016;2022-09-01T02:43:40;99106.53;;;15.84;88.33
42289;BME280;30230;47.520;19.016;2022-09-01T02:45:42;99093.94;;;15.95;86.74
42289;BME280;30230;47.520;19.016;2022-09-01T02:47:43;99085.31;;;15.86;87.05
42289;BME280;30230;47.520;19.016;2022-09-01T02:49:45;99089.47;;;15.89;86.82
42289;BME280;30230;47.520;19.016;2022-09-01T02:51:48;99079.75;;;15.93;85.09
42289;BME280;30230;47.520;19.016;2022-09-01T02:53:52;99083.53;;;15.92;84.06
42289;BME280;30230;47.520;19.016;2022-09-01T02:55:53;99087.72;;;15.83;84.39
42289;BME280;30230;47.520;19.016;2022-09-01T02:57:56;99082.88;;;16.02;85.67
42289;BME280;30230;47.520;19.016;2022-09-01T02:59:57;99084.25;;;15.87;83.96
42289;BME280;30230;47.520;19.016;2022-09-01T03:01:58;99080.84;;;15.80;84.51
42289;BME280;30230;47.520;19.016;2022-09-01T03:04:01;99073.19;;;15.66;86.15
42289;BME280;30230;47.520;19.016;2022-09-01T03:06:02;99054.97;;;15.66;85.80
42289;BME280;30230;47.520;19.016;2022-09-01T03:08:08;99068.34;;;15.56;85.42
42289;BME280;30230;47.520;19.016;2022-09-01T03:10:09;99075.06;;;15.77;85.86
42289;BME280;30230;47.520;19.016;2022-09-01T03:12:10;99075.91;;;15.66;84.75
42289;BME280;30230;47.520;19.016;2022-09-01T03:14:10;99070.47;;;15.54;86.46
42289;BME280;30230;47.520;19.016;2022-09-01T03:16:11;99074.25;;;15.53;87.44
42289;BME280;30230;47.520;19.016;2022-09-01T03:18:13;99067.84;;;15.59;86.18
42289;BME280;30230;47.520;19.016;2022-09-01T03:20:15;99067.16;;;15.52;86.82
42289;BME280;30230;47.520;19.016;2022-09-01T03:22:16;99069.06;;;15.63;87.05
42289;BME280;30230;47.520;19.016;2022-09-01T03:24:17;99064.78;;;15.55;88.20
42289;BME280;30230;47.520;19.016;2022-09-01T03:26:19;99067.53;;;15.44;88.61
42289;BME280;30230;47.520;19.016;2022-09-01T03:28:21;99061.28;;;15.31;88.01
42289;BME280;30230;47.520;19.016;2022-09-01T03:30:21;99078.66;;;15.42;87.72
42289;BME280;30230;47.520;19.016;2022-09-01T03:32:22;99081.25;;;15.49;86.93
42289;BME280;30230;47.520;19.016;2022-09-01T03:34:23;99089.19;;;15.38;86.55
42289;BME280;30230;47.520;19.016;2022-09-01T03:36:24;99093.44;;;15.34;88.32
42289;BME280;30230;47.520;19.016;2022-09-01T03:38:25;99099.84;;;15.40;85.80
42289;BME280;30230;47.520;19.016;2022-09-01T03:40:31;99100.44;;;15.42;86.41
42289;BME280;30230;47.520;19.016;2022-09-01T03:42:31;99109.28;;;15.49;87.40
42289;BME280;30230;47.520;19.016;2022-09-01T03:44:32;99115.69;;;15.43;87.01
42289;BME280;30230;47.520;19.016;2022-09-01T03:46:35;99108.34;;;15.44;87.76
42289;BME280;30230;47.520;19.016;2022-09-01T03:48:37;99105.63;;;15.44;88.84
42289;BME280;30230;47.520;19.016;2022-09-01T03:50:40;99100.31;;;15.49;86.61
42289;BME280;30230;47.520;19.016;2022-09-01T03:52:49;99097.78;;;15.59;86.56
42289;BME280;30230;47.520;19.016;2022-09-01T03:54:51;99089.38;;;15.60;86.30
42289;BME280;30230;47.520;19.016;2022-09-01T03:56:52;99082.53;;;15.58;88.38
42289;BME280;30230;47.520;19.016;2022-09-01T03:58:57;99074.72;;;15.50;86.88
42289;BME280;30230;47.520;19.016;2022-09-01T04:00:59;99070.34;;;15.49;86.49
42289;BME280;30230;47.520;19.016;2022-09-01T04:03:04;99073.91;;;15.49;86.49
42289;BME280;30230;47.520;19.016;2022-09-01T04:05:07;99071.19;;;15.49;87.22
42289;BME280;30230;47.520;19.016;2022-09-01T04:07:08;99076.41;;;15.39;85.41
42289;BME280;30230;47.520;19.016;2022-09-01T04:09:09;99081.28;;;15.37;86.80
42289;BME280;30230;47.520;19.016;2022-09-01T04:11:15;99079.38;;;15.37;87.11
42289;BME280;30230;47.520;19.016;2022-09-01T04:13:34;99076.53;;;15.32;86.31
42289;BME280;30230;47.520;19.016;2022-09-01T04:15:36;99080.56;;;15.42;88.07
42289;BME280;30230;47.520;19.016;2022-09-01T04:17:36;99080.78;;;15.40;88.36
42289;BME280;30230;47.520;19.016;2022-09-01T04:19:55;99082.78;;;15.45;87.76
42289;BME280;30230;47.520;19.016;2022-09-01T04:21:58;99074.75;;;15.38;86.01
42289;BME280;30230;47.520;19.016;2022-09-01T04:23:59;99070.03;;;15.33;86.06
42289;BME280;30230;47.520;19.016;2022-09-01T04:26:09;99052.78;;;15.16;86.44
42289;BME280;30230;47.520;19.016;2022-09-01T04:28:13;99075.00;;;15.36;88.77
42289;BME280;30230;47.520;19.016;2022-09-01T04:30:22;99071.94;;;15.33;89.68
42289;BME280;30230;47.520;19.016;2022-09-01T04:32:30;99077.63;;;15.31;87.22
42289;BME280;30230;47.520;19.016;2022-09-01T04:34:35;99072.88;;;15.38;87.92
42289;BME280;30230;47.520;19.016;2022-09-01T04:36:38;99071.00;;;15.27;86.40
42289;BME280;30230;47.520;19.016;2022-09-01T04:38:40;99073.25;;;15.30;88.87
42289;BME280;30230;47.520;19.016;2022-09-01T04:40:41;99078.78;;;15.24;87.08
42289;BME280;30230;47.520;19.016;2022-09-01T04:42:42;99079.03;;;15.22;85.37
42289;BME280;30230;47.520;19.016;2022-09-01T04:44:44;99077.63;;;15.31;86.71
42289;BME280;30230;47.520;19.016;2022-09-01T04:46:46;99078.94;;;15.17;87.21
42289;BME280;30230;47.520;19.016;2022-09-01T04:48:52;99076.06;;;15.24;88.14
42289;BME280;30230;47.520;19.016;2022-09-01T04:50:52;99074.78;;;15.03;87.55
42289;BME280;30230;47.520;19.016;2022-09-01T04:52:58;99077.16;;;15.11;88.26
42289;BME280;30230;47.520;19.016;2022-09-01T04:55:00;99076.31;;;14.99;89.12
42289;BME280;30230;47.520;19.016;2022-09-01T04:57:02;99071.72;;;14.88;90.46
42289;BME280;30230;47.520;19.016;2022-09-01T04:59:06;99076.22;;;14.94;90.86
42289;BME280;30230;47.520;19.016;2022-09-01T05:01:14;99077.19;;;14.99;90.94
42289;BME280;30230;47.520;19.016;2022-09-01T05:03:15;99067.59;;;14.97;90.48
42289;BME280;30230;47.520;19.016;2022-09-01T05:05:16;99085.47;;;15.04;92.57
42289;BME280;30230;47.520;19.016;2022-09-01T05:07:17;99076.34;;;15.10;91.54
42289;BME280;30230;47.520;19.016;2022-09-01T05:09:18;99081.53;;;15.12;89.37
42289;BME280;30230;47.520;19.016;2022-09-01T05:11:19;99084.28;;;15.00;89.81
42289;BME280;30230;47.520;19.016;2022-09-01T05:13:20;99076.94;;;15.01;91.28
42289;BME280;30230;47.520;19.016;2022-09-01T05:15:22;99087.09;;;14.94;91.95
42289;BME280;30230;47.520;19.016;2022-09-01T05:17:22;99094.66;;;14.92;93.47
42289;BME280;30230;47.520;19.016;2022-09-01T05:19:28;99084.97;;;14.96;94.15
42289;BME280;30230;47.520;19.016;2022-09-01T05:21:29;99084.16;;;15.07;92.56
42289;BME280;30230;47.520;19.016;2022-09-01T05:23:29;99092.75;;;15.04;91.04
42289;BME280;30230;47.520;19.016;2022-09-01T05:25:37;99090.53;;;15.01;91.88
42289;BME280;30230;47.520;19.016;2022-09-01T05:27:42;99087.09;;;14.94;93.14
42289;BME280;30230;47.520;19.016;2022-09-01T05:29:48;99093.25;;;15.01;92.14
42289;BME280;30230;47.520;19.016;2022-09-01T05:31:49;99082.25;;;14.96;91.75
42289;BME280;30230;47.520;19.016;2022-09-01T05:33:51;99088.41;;;14.91;91.92
42289;BME280;30230;47.520;19.016;2022-09-01T05:35:54;99079.41;;;14.91;92.08
42289;BME280;30230;47.520;19.016;2022-09-01T05:37:54;99080.22;;;15.03;92.42
42289;BME280;30230;47.520;19.016;2022-09-01T05:39:55;99073.03;;;14.97;90.96
42289;BME280;30230;47.520;19.016;2022-09-01T05:41:57;99075.28;;;15.00;91.80
42289;BME280;30230;47.520;19.016;2022-09-01T05:43:58;99078.59;;;14.90;92.28
42289;BME280;30230;47.520;19.016;2022-09-01T05:45:59;99084.38;;;14.94;92.04
42289;BME280;30230;47.520;19.016;2022-09-01T05:48:03;99084.75;;;14.85;91.92
42289;BME280;30230;47.520;19.016;2022-09-01T05:50:05;99087.94;;;14.94;91.78
42289;BME280;30230;47.520;19.016;2022-09-01T05:52:08;99091.50;;;14.95;88.68
42289;BME280;30230;47.520;19.016;2022-09-01T05:54:09;99102.34;;;14.83;89.05
42289;BME280;30230;47.520;19.016;2022-09-01T05:56:11;99084.75;;;14.74;91.10
42289;BME280;30230;47.520;19.016;2022-09-01T05:58:15;99092.28;;;14.72;91.41
42289;BME280;30230;47.520;19.016;2022-09-01T06:00:16;99085.78;;;14.73;92.77
42289;BME280;30230;47.520;19.016;2022-09-01T06:02:17;99091.25;;;14.84;92.70
42289;BME280;30230;47.520;19.016;2022-09-01T06:04:17;99086.25;;;14.81;92.05
42289;BME280;30230;47.520;19.016;2022-09-01T06:06:18;99091.69;;;14.81;92.07
42289;BME280;30230;47.520;19.016;2022-09-01T06:08:23;99092.91;;;14.85;92.33
42289;BME280;30230;47.520;19.016;2022-09-01T06:10:24;99090.88;;;14.93;92.81
42289;BME280;30230;47.520;19.016;2022-09-01T06:12:26;99093.13;;;14.96;93.78
42289;BME280;30230;47.520;19.016;2022-09-01T06:14:28;99086.59;;;15.32;97.99
42289;BME280;30230;47.520;19.016;2022-09-01T06:16:29;99090.28;;;15.89;99.93
42289;BME280;30230;47.520;19.016;2022-09-01T06:18:30;99080.59;;;16.10;91.44
42289;BME280;30230;47.520;19.016;2022-09-01T06:20:37;99089.59;;;16.11;87.28
42289;BME280;30230;47.520;19.016;2022-09-01T06:22:39;99090.28;;;15.89;85.38
42289;BME280;30230;47.520;19.016;2022-09-01T06:24:40;99092.13;;;15.72;86.64
42289;BME280;30230;47.520;19.016;2022-09-01T06:26:41;99093.44;;;15.58;88.51
42289;BME280;30230;47.520;19.016;2022-09-01T06:28:43;99082.31;;;15.48;88.82
42289;BME280;30230;47.520;19.016;2022-09-01T06:30:44;99097.97;;;15.41;91.61
42289;BME280;30230;47.520;19.016;2022-09-01T06:32:45;99100.47;;;15.30;90.30
42289;BME280;30230;47.520;19.016;2022-09-01T06:34:48;99091.00;;;15.21;87.62
42289;BME280;30230;47.520;19.016;2022-09-01T06:36:50;99098.78;;;15.29;88.84
42289;BME280;30230;47.520;19.016;2022-09-01T06:38:52;99106.13;;;15.17;86.21
42289;BME280;30230;47.520;19.016;2022-09-01T06:41:04;99104.25;;;15.18;87.21
42289;BME280;30230;47.520;19.016;2022-09-01T06:43:10;99103.41;;;15.17;87.92
42289;BME280;30230;47.520;19.016;2022-09-01T06:45:16;99104.59;;;15.21;88.21
42289;BME280;30230;47.520;19.016;2022-09-01T06:47:17;99108.84;;;15.17;89.99
42289;BME280;30230;47.520;19.016;2022-09-01T06:49:20;99101.41;;;15.13;89.61
42289;BME280;30230;47.520;19.016;2022-09-01T06:51:22;99110.03;;;15.21;89.29
42289;BME280;30230;47.520;19.016;2022-09-01T06:53:24;99109.66;;;15.29;86.94
42289;BME280;30230;47.520;19.016;2022-09-01T06:55:24;99107.44;;;15.26;86.35
42289;BME280;30230;47.520;19.016;2022-09-01T06:57:24;99110.50;;;15.30;89.42
42289;BME280;30230;47.520;19.016;2022-09-01T06:59:27;99099.84;;;15.28;90.78
42289;BME280;30230;47.520;19.016;2022-09-01T07:01:31;99106.03;;;15.35;89.97
42289;BME280;30230;47.520;19.016;2022-09-01T07:03:33;99109.31;;;15.37;90.20
42289;BME280;30230;47.520;19.016;2022-09-01T07:05:37;99106.59;;;15.37;89.17
42289;BME280;30230;47.520;19.016;2022-09-01T07:07:38;99120.34;;;15.31;89.42
42289;BME280;30230;47.520;19.016;2022-09-01T07:09:40;99120.44;;;15.36;90.25
42289;BME280;30230;47.520;19.016;2022-09-01T07:11:40;99127.53;;;15.37;90.61
42289;BME280;30230;47.520;19.016;2022-09-01T07:13:41;99129.78;;;15.40;90.58
42289;BME280;30230;47.520;19.016;2022-09-01T07:15:44;99130.50;;;15.47;89.99
42289;BME280;30230;47.520;19.016;2022-09-01T07:17:51;99135.47;;;15.38;90.67
42289;BME280;30230;47.520;19.016;2022-09-01T07:19:52;99127.28;;;15.38;88.54
42289;BME280;30230;47.520;19.016;2022-09-01T07:21:53;99123.38;;;15.34;89.64
42289;BME280;30230;47.520;19.016;2022-09-01T07:23:54;99127.66;;;15.42;86.87
42289;BME280;30230;47.520;19.016;2022-09-01T07:25:57;99132.28;;;15.42;87.70
42289;BME280;30230;47.520;19.016;2022-09-01T07:27:59;99133.34;;;15.41;87.41
42289;BME280;30230;47.520;19.016;2022-09-01T07:30:00;99132.28;;;15.42;86.73
42289;BME280;30230;47.520;19.016;2022-09-01T07:32:01;99131.56;;;15.46;88.89
42289;BME280;30230;47.520;19.016;2022-09-01T07:34:04;99138.69;;;15.35;88.37
42289;BME280;30230;47.520;19.016;2022-09-01T07:36:05;99138.78;;;15.41;87.80
42289;BME280;30230;47.520;19.016;2022-09-01T07:38:08;99139.13;;;15.44;89.29
42289;BME280;30230;47.520;19.016;2022-09-01T07:40:12;99145.16;;;15.58;89.60
42289;BME280;30230;47.520;19.016;2022-09-01T07:42:19;99141.75;;;15.51;89.26
42289;BME280;30230;47.520;19.016;2022-09-01T07:44:20;99141.38;;;15.47;84.77
42289;BME280;30230;47.520;19.016;2022-09-01T07:46:21;99139.38;;;15.43;86.59
42289;BME280;30230;47.520;19.016;2022-09-01T07:48:23;99135.56;;;15.44;87.44
42289;BME280;30230;47.520;19.016;2022-09-01T07:50:23;99138.06;;;15.45;87.41
42289;BME280;30230;47.520;19.016;2022-09-01T07:52:25;99144.81;;;15.43;86.20
42289;BME280;30230;47.520;19.016;2022-09-01T07:54:26;99144.34;;;15.46;85.09
42289;BME280;30230;47.520;19.016;2022-09-01T07:56:27;99139.72;;;15.46;84.65
42289;BME280;30230;47.520;19.016;2022-09-01T07:58:29;99129.66;;;15.47;86.67
42289;BME280;30230;47.520;19.016;2022-09-01T08:00:30;99142.91;;;15.55;86.96
42289;BME280;30230;47.520;19.016;2022-09-01T08:02:32;99127.28;;;15.62;90.69
42289;BME280;30230;47.520;19.016;2022-09-01T08:04:33;99131.91;;;15.61;89.94
42289;BME280;30230;47.520;19.016;2022-09-01T08:06:33;99138.63;;;15.71;88.98
42289;BME280;30230;47.520;19.016;2022-09-01T08:08:35;99132.47;;;15.75;91.17
42289;BME280;30230;47.520;19.016;2022-09-01T08:10:40;99131.97;;;15.90;89.80
42289;BME280;30230;47.520;19.016;2022-09-01T08:12:40;99133.50;;;15.98;89.48
42289;BME280;30230;47.520;19.016;2022-09-01T08:14:41;99137.25;;;15.97;81.59
42289;BME280;30230;47.520;19.016;2022-09-01T08:16:41;99138.53;;;16.06;83.58
42289;BME280;30230;47.520;19.016;2022-09-01T08:18:42;99139.16;;;16.08;81.01
42289;BME280;30230;47.520;19.016;2022-09-01T08:20:44;99135.50;;;16.02;79.74
42289;BME280;30230;47.520;19.016;2022-09-01T08:22:46;99134.53;;;15.97;84.46
42289;BME280;30230;47.520;19.016;2022-09-01T08:24:46;99124.81;;;16.01;83.15
42289;BME280;30230;47.520;19.016;2022-09-01T08:26:47;99137.03;;;15.98;82.98
42289;BME280;30230;47.520;19.016;2022-09-01T08:28:47;99139.38;;;16.06;83.35
42289;BME280;30230;47.520;19.016;2022-09-01T08:30:48;99139.97;;;15.97;86.11
42289;BME280;30230;47.520;19.016;2022-09-01T08:32:48;99143.06;;;16.00;87.82
42289;BME280;30230;47.520;19.016;2022-09-01T08:34:49;99143.56;;;15.97;83.18
42289;BME280;30230;47.520;19.016;2022-09-01T08:36:49;99151.25;;;16.00;86.14
42289;BME280;30230;47.520;19.016;2022-09-01T08:38:51;99144.50;;;16.03;83.88
42289;BME280;30230;47.520;19.016;2022-09-01T08:40:54;99139.03;;;16.03;78.62
42289;BME280;30230;47.520;19.016;2022-09-01T08:43:04;99147.63;;;16.11;84.82
42289;BME280;30230;47.520;19.016;2022-09-01T08:45:46;99149.53;;;16.11;87.05
42289;BME280;30230;47.520;19.016;2022-09-01T08:47:51;99149.38;;;16.18;89.01
42289;BME280;30230;47.520;19.016;2022-09-01T08:49:53;99152.00;;;16.24;91.54
42289;BME280;30230;47.520;19.016;2022-09-01T08:52:05;99157.53;;;16.29;92.45
42289;BME280;30230;47.520;19.016;2022-09-01T08:56:30;99154.19;;;16.39;88.86
42289;BME280;30230;47.520;19.016;2022-09-01T08:58:30;99146.94;;;16.45;89.37
42289;BME280;30230;47.520;19.016;2022-09-01T09:00:41;99146.19;;;16.49;90.97
42289;BME280;30230;47.520;19.016;2022-09-01T09:09:11;99143.47;;;16.66;91.05
42289;BME280;30230;47.520;19.016;2022-09-01T09:15:51;99142.03;;;16.92;92.11
42289;BME280;30230;47.520;19.016;2022-09-01T09:17:59;99136.06;;;16.95;92.13
42289;BME280;30230;47.520;19.016;2022-09-01T09:20:04;99139.97;;;16.99;90.91
42289;BME280;30230;47.520;19.016;2022-09-01T09:22:08;99140.31;;;17.03;84.80
42289;BME280;30230;47.520;19.016;2022-09-01T09:26:10;99139.28;;;17.26;87.15
42289;BME280;30230;47.520;19.016;2022-09-01T09:28:12;99128.22;;;17.32;85.53
42289;BME280;30230;47.520;19.016;2022-09-01T09:30:21;99125.78;;;17.36;83.47
42289;BME280;30230;47.520;19.016;2022-09-01T09:32:40;99133.22;;;17.40;83.99
42289;BME280;30230;47.520;19.016;2022-09-01T09:34:41;99129.19;;;17.43;80.00
42289;BME280;30230;47.520;19.016;2022-09-01T09:36:43;99123.94;;;17.41;80.76
42289;BME280;30230;47.520;19.016;2022-09-01T09:38:45;99132.63;;;17.55;83.50
42289;BME280;30230;47.520;19.016;2022-09-01T09:41:03;99128.22;;;17.54;83.38
42289;BME280;30230;47.520;19.016;2022-09-01T09:43:05;99130.13;;;17.54;83.46
42289;BME280;30230;47.520;19.016;2022-09-01T09:45:28;99122.44;;;17.51;80.15
42289;BME280;30230;47.520;19.016;2022-09-01T09:47:39;99121.94;;;17.54;77.22
42289;BME280;30230;47.520;19.016;2022-09-01T09:49:40;99117.25;;;17.71;78.13
42289;BME280;30230;47.520;19.016;2022-09-01T09:51:43;99122.47;;;17.73;78.81
42289;BME280;30230;47.520;19.016;2022-09-01T09:53:44;99111.16;;;17.64;79.35
42289;BME280;30230;47.520;19.016;2022-09-01T09:55:55;99117.72;;;17.63;77.12
42289;BME280;30230;47.520;19.016;2022-09-01T09:58:01;99113.56;;;17.60;74.65
42289;BME280;30230;47.520;19.016;2022-09-01T10:00:22;99113.00;;;17.58;72.95
42289;BME280;30230;47.520;19.016;2022-09-01T10:04:35;99115.59;;;17.70;79.81
42289;BME280;30230;47.520;19.016;2022-09-01T10:06:40;99111.78;;;17.71;81.17
42289;BME280;30230;47.520;19.016;2022-09-01T10:08:44;99117.34;;;17.76;80.01
42289;BME280;30230;47.520;19.016;2022-09-01T10:10:47;99108.44;;;17.86;80.09
42289;BME280;30230;47.520;19.016;2022-09-01T10:12:48;99108.00;;;17.94;80.03
42289;BME280;30230;47.520;19.016;2022-09-01T10:15:22;99119.84;;;18.27;72.71
42289;BME280;30230;47.520;19.016;2022-09-01T10:17:44;99113.56;;;18.26;73.41
42289;BME280;30230;47.520;19.016;2022-09-01T10:19:55;99107.81;;;18.28;75.50
42289;BME280;30230;47.520;19.016;2022-09-01T10:21:56;99112.53;;;18.32;73.58
42289;BME280;30230;47.520;19.016;2022-09-01T10:23:57;99109.34;;;18.40;74.41
42289;BME280;30230;47.520;19.016;2022-09-01T10:26:06;99100.41;;;18.55;64.43
42289;BME280;30230;47.520;19.016;2022-09-01T10:28:17;99107.75;;;18.71;64.64
42289;BME280;30230;47.520;19.016;2022-09-01T10:30:20;99100.31;;;19.04;65.94
42289;BME280;30230;47.520;19.016;2022-09-01T10:32:27;99094.69;;;19.21;64.30
42289;BME280;30230;47.520;19.016;2022-09-01T10:34:32;99097.00;;;19.44;58.63
42289;BME280;30230;47.520;19.016;2022-09-01T10:36:34;99100.19;;;19.73;59.28
42289;BME280;30230;47.520;19.016;2022-09-01T10:38:35;99103.31;;;19.97;59.26
42289;BME280;30230;47.520;19.016;2022-09-01T10:40:39;99091.84;;;20.11;56.69
42289;BME280;30230;47.520;19.016;2022-09-01T10:42:42;99085.84;;;20.34;60.05
42289;BME280;30230;47.520;19.016;2022-09-01T10:44:57;99097.97;;;20.59;58.19
42289;BME280;30230;47.520;19.016;2022-09-01T10:47:00;99094.41;;;20.68;55.28
42289;BME280;30230;47.520;19.016;2022-09-01T10:49:12;99093.59;;;20.68;57.49
42289;BME280;30230;47.520;19.016;2022-09-01T10:55:42;99090.28;;;20.86;53.10
42289;BME280;30230;47.520;19.016;2022-09-01T11:02:19;99086.19;;;20.89;50.98
42289;BME280;30230;47.520;19.016;2022-09-01T11:05:08;99093.03;;;20.91;48.86
42289;BME280;30230;47.520;19.016;2022-09-01T11:07:03;99082.06;;;20.81;49.69
42289;BME280;30230;47.520;19.016;2022-09-01T11:09:06;99084.25;;;20.99;52.66
42289;BME280;30230;47.520;19.016;2022-09-01T11:15:39;99078.06;;;21.64;50.58
42289;BME280;30230;47.520;19.016;2022-09-01T11:20:09;99091.94;;;22.03;46.77
42289;BME280;30230;47.520;19.016;2022-09-01T11:22:21;99081.72;;;22.08;45.51